createdAt,value
2023-03-06T00:01:10.619Z,96725.16
2023-03-06T00:03:40.641Z,96725.59
2023-03-06T00:06:09.260Z,96727.50
2023-03-06T00:08:37.432Z,96723.31
2023-03-06T00:11:06.295Z,96718.63
2023-03-06T00:13:35.267Z,96713.94
2023-03-06T00:16:03.628Z,96725.22
2023-03-06T00:18:32.468Z,96719.91
2023-03-06T00:21:02.246Z,96715.41
2023-03-06T00:23:30.341Z,96706.94
2023-03-06T00:25:59.246Z,96706.44
2023-03-06T00:28:27.387Z,96712.31
2023-03-06T00:30:55.619Z,96706.00
2023-03-06T00:33:24.287Z,96701.47
2023-03-06T00:35:52.592Z,96700.28
2023-03-06T00:38:22.780Z,96700.06
2023-03-06T00:40:51.494Z,96688.81
2023-03-06T00:43:20.083Z,96683.72
2023-03-06T00:45:48.873Z,96687.44
2023-03-06T00:48:17.875Z,96686.53
2023-03-06T00:50:46.730Z,96685.28
2023-03-06T00:53:14.881Z,96681.25
2023-03-06T00:55:47.988Z,96673.91
2023-03-06T00:58:16.344Z,96669.66
2023-03-06T01:00:44.920Z,96684.06
2023-03-06T01:03:13.757Z,96671.84
2023-03-06T01:05:42.101Z,96663.47
2023-03-06T01:08:10.392Z,96662.44
2023-03-06T01:10:42.228Z,96663.72
2023-03-06T01:13:12.130Z,96660.78
2023-03-06T01:15:40.373Z,96651.78
2023-03-06T01:18:09.390Z,96645.44
2023-03-06T01:20:37.712Z,96641.25
2023-03-06T01:23:06.561Z,96635.66
2023-03-06T01:25:35.035Z,96636.81
2023-03-06T01:28:03.745Z,96636.13
2023-03-06T01:30:33.278Z,96622.09
2023-03-06T01:33:01.417Z,96625.19
2023-03-06T01:35:30.239Z,96618.81
2023-03-06T01:37:58.307Z,96619.34
2023-03-06T01:40:27.096Z,96617.56
2023-03-06T01:42:56.489Z,96615.25
2023-03-06T01:46:02.287Z,96610.91
2023-03-06T01:48:33.071Z,96615.22
2023-03-06T01:51:01.397Z,96602.25
2023-03-06T01:53:29.887Z,96607.13
2023-03-06T01:55:59.458Z,96599.66
2023-03-06T01:58:27.896Z,96601.28
2023-03-06T02:00:56.356Z,96607.41
2023-03-06T02:03:28.184Z,96607.72
2023-03-06T02:05:59.898Z,96599.13
2023-03-06T02:08:28.965Z,96602.31
2023-03-06T02:11:07.076Z,96598.09
2023-03-06T02:13:36.276Z,96595.50
2023-03-06T02:16:04.884Z,96599.03
2023-03-06T02:18:34.955Z,96596.50
2023-03-06T02:21:08.593Z,96601.06
2023-03-06T02:23:46.971Z,96595.53
2023-03-06T02:26:17.617Z,96594.03
2023-03-06T02:28:45.815Z,96589.13
2023-03-06T02:31:23.395Z,96573.22
2023-03-06T02:34:09.939Z,96583.81
2023-03-06T02:36:43.403Z,96566.72
2023-03-06T02:39:12.264Z,96583.19
2023-03-06T02:41:42.243Z,96581.13
2023-03-06T02:44:11.302Z,96562.25
2023-03-06T02:46:39.783Z,96570.38
2023-03-06T02:49:08.750Z,96566.84
2023-03-06T02:51:37.152Z,96564.84
2023-03-06T02:54:05.751Z,96559.44
2023-03-06T02:56:34.598Z,96564.78
2023-03-06T02:59:04.152Z,96554.88
2023-03-06T03:01:32.633Z,96545.44
2023-03-06T03:04:01.491Z,96542.88
2023-03-06T03:06:29.796Z,96551.94
2023-03-06T03:08:57.820Z,96545.16
2023-03-06T03:11:26.706Z,96537.03
2023-03-06T03:13:54.954Z,96535.75
2023-03-06T03:16:24.507Z,96534.63
2023-03-06T03:18:53.311Z,96525.19
2023-03-06T03:21:21.794Z,96533.34
2023-03-06T03:23:50.153Z,96534.34
2023-03-06T03:26:22.104Z,96527.44
2023-03-06T03:28:50.440Z,96524.13
2023-03-06T03:31:19.413Z,96517.00
2023-03-06T03:33:48.925Z,96514.91
2023-03-06T03:36:17.075Z,96519.19
2023-03-06T03:38:45.748Z,96515.41
2023-03-06T03:41:28.860Z,96510.91
2023-03-06T03:43:57.447Z,96506.47
2023-03-06T03:46:25.972Z,96516.34
2023-03-06T03:48:55.961Z,96508.94
2023-03-06T03:51:24.366Z,96512.06
2023-03-06T03:53:52.517Z,96504.88
2023-03-06T03:56:20.821Z,96503.50
2023-03-06T03:58:49.958Z,96508.88
2023-03-06T04:01:18.094Z,96498.22
2023-03-06T04:03:46.112Z,96472.06
2023-03-06T04:06:16.441Z,96499.25
2023-03-06T04:08:44.949Z,96497.06
2023-03-06T04:11:13.226Z,96495.34
2023-03-06T04:13:41.675Z,96489.44
2023-03-06T04:16:10.136Z,96488.81
2023-03-06T04:18:38.121Z,96489.56
2023-03-06T04:21:07.009Z,96482.84
2023-03-06T04:23:37.174Z,96470.81
2023-03-06T04:26:05.617Z,96480.81
2023-03-06T04:28:35.330Z,96475.91
2023-03-06T04:31:03.422Z,96485.09
2023-03-06T04:33:31.474Z,96486.00
2023-03-06T04:36:00.896Z,96478.75
2023-03-06T04:38:29.461Z,96471.09
2023-03-06T04:40:58.797Z,96471.94
2023-03-06T04:43:27.508Z,96478.25
2023-03-06T04:45:56.185Z,96464.69
2023-03-06T04:48:25.369Z,96466.03
2023-03-06T04:50:54.344Z,96465.41
2023-03-06T04:53:22.633Z,96453.41
2023-03-06T04:55:51.014Z,96453.25
2023-03-06T04:58:21.508Z,96455.31
2023-03-06T05:00:50.064Z,96447.44
2023-03-06T05:03:18.992Z,96440.72
2023-03-06T05:05:48.115Z,96446.34
2023-03-06T05:08:17.852Z,96447.94
2023-03-06T05:10:47.112Z,96443.63
2023-03-06T05:13:15.391Z,96439.34
2023-03-06T05:15:45.173Z,96440.75
2023-03-06T05:18:13.853Z,96444.97
2023-03-06T05:20:42.561Z,96441.56
2023-03-06T05:23:11.877Z,96443.69
2023-03-06T05:25:41.996Z,96436.00
2023-03-06T05:28:10.561Z,96424.72
2023-03-06T05:30:39.666Z,96434.81
2023-03-06T05:33:09.684Z,96434.84
2023-03-06T05:35:38.071Z,96436.50
2023-03-06T05:38:06.734Z,96432.16
2023-03-06T05:40:34.876Z,96427.13
2023-03-06T05:43:03.097Z,96425.66
2023-03-06T05:45:32.293Z,96428.53
2023-03-06T05:48:00.925Z,96429.53
2023-03-06T05:50:30.751Z,96430.16
2023-03-06T05:52:59.332Z,96431.44
2023-03-06T05:55:28.329Z,96433.09
2023-03-06T05:57:56.869Z,96423.22
2023-03-06T06:00:26.217Z,96428.06
2023-03-06T06:02:54.451Z,96425.47
2023-03-06T06:05:22.907Z,96417.53
2023-03-06T06:07:53.259Z,96430.81
2023-03-06T06:10:21.676Z,96423.19
2023-03-06T06:12:50.143Z,96428.09
2023-03-06T06:15:19.292Z,96432.25
2023-03-06T06:17:47.661Z,96417.94
2023-03-06T06:20:17.308Z,96427.84
2023-03-06T06:22:46.010Z,96406.91
2023-03-06T06:25:17.109Z,96412.53
2023-03-06T06:27:46.122Z,96425.94
2023-03-06T06:30:15.426Z,96429.44
2023-03-06T06:32:44.364Z,96421.28
2023-03-06T06:35:14.026Z,96417.72
2023-03-06T06:37:42.803Z,96423.97
2023-03-06T06:40:12.925Z,96428.56
2023-03-06T06:42:44.014Z,96424.69
2023-03-06T06:45:13.368Z,96411.66
2023-03-06T06:47:42.767Z,96415.59
2023-03-06T06:50:14.972Z,96420.16
2023-03-06T06:52:43.816Z,96418.56
2023-03-06T06:55:13.979Z,96423.50
2023-03-06T06:57:45.112Z,96414.31
2023-03-06T07:00:16.116Z,96420.03
2023-03-06T07:02:45.323Z,96418.41
2023-03-06T07:05:14.112Z,96412.78
2023-03-06T07:07:43.034Z,96429.00
2023-03-06T07:10:16.335Z,96416.53
2023-03-06T07:12:46.828Z,96407.06
2023-03-06T07:15:20.266Z,96414.13
2023-03-06T07:17:50.279Z,96419.28
2023-03-06T07:20:20.907Z,96432.06
2023-03-06T07:22:51.854Z,96420.25
2023-03-06T07:25:23.089Z,96437.63
2023-03-06T07:27:55.428Z,96426.16
2023-03-06T07:30:26.232Z,96425.81
2023-03-06T07:32:55.969Z,96402.06
2023-03-06T07:35:24.961Z,96419.81
2023-03-06T07:37:54.711Z,96425.25
2023-03-06T07:40:23.686Z,96427.97
2023-03-06T07:43:13.029Z,96431.50
2023-03-06T07:45:47.166Z,96429.22
2023-03-06T07:48:18.308Z,96422.97
2023-03-06T07:50:47.610Z,96439.19
2023-03-06T07:53:16.600Z,96430.25
2023-03-06T07:55:45.985Z,96434.13
2023-03-06T07:58:16.448Z,96425.44
2023-03-06T08:00:45.273Z,96426.06
2023-03-06T08:03:14.952Z,96430.31
2023-03-06T08:05:44.419Z,96427.91
2023-03-06T08:08:13.876Z,96429.63
2023-03-06T08:10:43.165Z,96419.47
2023-03-06T08:13:12.624Z,96438.75
2023-03-06T08:15:43.401Z,96432.84
2023-03-06T08:18:12.791Z,96426.13
2023-03-06T08:20:42.090Z,96420.41
2023-03-06T08:23:12.632Z,96420.22
2023-03-06T08:25:41.306Z,96423.44
2023-03-06T08:28:10.002Z,96416.31
2023-03-06T08:30:39.758Z,96422.22
2023-03-06T08:33:09.659Z,96429.72
2023-03-06T08:35:38.686Z,96432.63
2023-03-06T08:38:08.292Z,96419.69
2023-03-06T08:40:36.838Z,96415.25
2023-03-06T08:43:05.224Z,96423.66
2023-03-06T08:45:34.790Z,96428.91
2023-03-06T08:48:03.702Z,96425.94
2023-03-06T08:50:34.995Z,96423.94
2023-03-06T08:53:04.346Z,96420.91
2023-03-06T08:55:33.151Z,96431.72
2023-03-06T08:58:02.251Z,96428.84
2023-03-06T09:00:31.211Z,96427.59
2023-03-06T09:03:00.158Z,96437.06
2023-03-06T09:05:29.371Z,96425.94
2023-03-06T09:08:00.452Z,96433.28
2023-03-06T09:10:31.304Z,96418.16
2023-03-06T09:13:00.284Z,96424.34
2023-03-06T09:15:28.545Z,96422.44
2023-03-06T09:17:57.619Z,96429.13
2023-03-06T09:20:26.055Z,96427.81
2023-03-06T09:22:55.118Z,96437.53
2023-03-06T09:25:31.884Z,96436.78
2023-03-06T09:28:11.707Z,96438.38
2023-03-06T09:30:43.378Z,96396.06
2023-03-06T09:33:25.203Z,96406.78
2023-03-06T09:35:55.957Z,96431.16
2023-03-06T09:38:28.419Z,96431.16
2023-03-06T09:41:25.549Z,96431.41
2023-03-06T09:43:58.155Z,96405.97
2023-03-06T09:46:33.207Z,96422.88
2023-03-06T09:49:17.237Z,96430.56
2023-03-06T09:52:00.830Z,96425.88
2023-03-06T09:54:42.841Z,96430.69
2023-03-06T09:57:22.732Z,96436.63
2023-03-06T09:59:56.403Z,96430.84
2023-03-06T10:02:35.614Z,96427.56
2023-03-06T10:05:21.346Z,96431.88
2023-03-06T10:07:57.052Z,96431.66
2023-03-06T10:10:28.749Z,96425.44
2023-03-06T10:13:07.894Z,96430.63
2023-03-06T10:15:39.507Z,96419.50
2023-03-06T10:18:09.567Z,96430.91
2023-03-06T10:20:52.133Z,96421.50
2023-03-06T10:23:44.894Z,96428.84
2023-03-06T10:26:17.996Z,96412.59
2023-03-06T10:28:58.955Z,96412.69
2023-03-06T10:31:29.043Z,96421.66
2023-03-06T10:34:00.527Z,96426.16
2023-03-06T10:36:31.161Z,96437.75
2023-03-06T10:39:01.504Z,96420.78
2023-03-06T10:41:32.419Z,96439.66
2023-03-06T10:44:24.871Z,96436.09
2023-03-06T10:46:55.520Z,96420.91
2023-03-06T10:49:36.860Z,96429.94
2023-03-06T10:52:08.313Z,96435.56
2023-03-06T10:54:39.292Z,96428.03
2023-03-06T11:01:03.375Z,96433.59
2023-03-06T11:03:36.576Z,96430.50
2023-03-06T11:06:36.867Z,96433.75
2023-03-06T11:09:33.549Z,96424.81
2023-03-06T11:12:28.407Z,96432.09
2023-03-06T11:15:24.476Z,96427.09
2023-03-06T11:18:05.451Z,96434.97
2023-03-06T11:20:51.550Z,96434.91
2023-03-06T11:45:32.492Z,96403.63
2023-03-06T11:53:24.404Z,96398.69
